sensor_id;sensor_type;location;lat;lon;timestamp;pressure;altitude;pressure_sealevel;temperature;humidity
60373;BME280;46216;52.220;5.134;2022-12-11T00:00:17;101336.59;;;2.29;100.00
60373;BME280;46216;52.220;5.134;2022-12-11T00:02:42;101328.84;;;2.25;100.00
60373;BME280;46216;52.220;5.134;2022-12-11T00:05:08;101334.88;;;2.28;100.00
60373;BME280;46216;52.220;5.134;2022-12-11T00:07:33;101335.63;;;2.32;100.00
60373;BME280;46216;52.220;5.134;2022-12-11T00:09:58;101333.97;;;2.29;100.00
60373;BME280;46216;52.220;5.134;2022-12-11T00:12:24;101332.19;;;2.30;100.00
60373;BME280;46216;52.220;5.134;2022-12-11T00:14:49;101334.97;;;2.25;100.00
60373;BME280;46216;52.220;5.134;2022-12-11T00:17:14;101339.28;;;2.28;100.00
60373;BME280;46216;52.220;5.134;2022-12-11T00:19:40;101333.19;;;2.26;100.00
60373;BME280;46216;52.220;5.134;2022-12-11T00:22:05;101334.78;;;2.31;100.00
60373;BME280;46216;52.220;5.134;2022-12-11T00:24:31;101340.03;;;2.31;100.00
60373;BME280;46216;52.220;5.134;2022-12-11T00:26:56;101340.03;;;2.31;100.00
60373;BME280;46216;52.220;5.134;2022-12-11T00:29:21;101340.13;;;2.28;100.00
60373;BME280;46216;52.220;5.134;2022-12-11T00:31:46;101343.56;;;2.30;100.00
60373;BME280;46216;52.220;5.134;2022-12-11T00:34:12;101345.25;;;2.33;100.00
60373;BME280;46216;52.220;5.134;2022-12-11T00:36:37;101349.59;;;2.34;100.00
60373;BME280;46216;52.220;5.134;2022-12-11T00:39:04;101332.94;;;2.33;100.00
60373;BME280;46216;52.220;5.134;2022-12-11T00:41:30;101333.78;;;2.35;100.00
60373;BME280;46216;52.220;5.134;2022-12-11T00:43:55;101341.50;;;2.40;100.00
60373;BME280;46216;52.220;5.134;2022-12-11T00:46:21;101334.63;;;2.36;100.00
60373;BME280;46216;52.220;5.134;2022-12-11T00:48:46;101339.84;;;2.37;100.00
60373;BME280;46216;52.220;5.134;2022-12-11T00:51:14;101339.84;;;2.37;100.00
60373;BME280;46216;52.220;5.134;2022-12-11T00:53:39;101335.34;;;2.41;100.00
60373;BME280;46216;52.220;5.134;2022-12-11T00:56:13;101332.69;;;2.43;100.00
60373;BME280;46216;52.220;5.134;2022-12-11T00:58:39;101330.97;;;2.42;100.00
60373;BME280;46216;52.220;5.134;2022-12-11T01:01:11;101329.22;;;2.41;100.00
60373;BME280;46216;52.220;5.134;2022-12-11T01:03:37;101325.63;;;2.45;100.00
60373;BME280;46216;52.220;5.134;2022-12-11T01:06:03;101336.13;;;2.45;100.00
60373;BME280;46216;52.220;5.134;2022-12-11T01:08:28;101338.78;;;2.43;100.00
60373;BME280;46216;52.220;5.134;2022-12-11T01:11:11;101326.50;;;2.44;100.00
60373;BME280;46216;52.220;5.134;2022-12-11T01:13:38;101320.22;;;2.48;100.00
60373;BME280;46216;52.220;5.134;2022-12-11T01:16:12;101319.28;;;2.50;100.00
60373;BME280;46216;52.220;5.134;2022-12-11T01:18:38;101321.00;;;2.51;100.00
60373;BME280;46216;52.220;5.134;2022-12-11T01:21:05;101310.47;;;2.51;100.00
60373;BME280;46216;52.220;5.134;2022-12-11T01:23:31;101314.88;;;2.51;100.00
60373;BME280;46216;52.220;5.134;2022-12-11T01:25:56;101319.25;;;2.52;100.00
60373;BME280;46216;52.220;5.134;2022-12-11T01:28:21;101314.78;;;2.54;100.00
60373;BME280;46216;52.220;5.134;2022-12-11T01:30:47;101319.25;;;2.52;100.00
60373;BME280;46216;52.220;5.134;2022-12-11T01:33:13;101314.97;;;2.48;100.00
60373;BME280;46216;52.220;5.134;2022-12-11T01:35:39;101306.19;;;2.49;100.00
60373;BME280;46216;52.220;5.134;2022-12-11T01:38:04;101308.66;;;2.53;100.00
60373;BME280;46216;52.220;5.134;2022-12-11T01:40:29;101310.47;;;2.51;100.00
60373;BME280;46216;52.220;5.134;2022-12-11T01:42:55;101314.88;;;2.51;100.00
60373;BME280;46216;52.220;5.134;2022-12-11T01:45:25;101305.19;;;2.51;100.00
60373;BME280;46216;52.220;5.134;2022-12-11T01:47:54;101316.63;;;2.52;100.00
60373;BME280;46216;52.220;5.134;2022-12-11T01:50:20;101307.03;;;2.49;100.00
60373;BME280;46216;52.220;5.134;2022-12-11T01:52:47;101309.59;;;2.51;100.00
60373;BME280;46216;52.220;5.134;2022-12-11T01:55:14;101318.41;;;2.50;100.00
60373;BME280;46216;52.220;5.134;2022-12-11T01:57:44;101318.34;;;2.51;100.00
60373;BME280;46216;52.220;5.134;2022-12-11T02:00:11;101314.78;;;2.54;100.00
60373;BME280;46216;52.220;5.134;2022-12-11T02:02:37;101308.63;;;2.55;100.00
60373;BME280;46216;52.220;5.134;2022-12-11T02:05:04;101305.09;;;2.54;100.00
60373;BME280;46216;52.220;5.134;2022-12-11T02:07:36;101299.16;;;2.49;100.00
60373;BME280;46216;52.220;5.134;2022-12-11T02:10:03;101303.38;;;2.55;100.00
60373;BME280;46216;52.220;5.134;2022-12-11T02:12:38;101297.47;;;2.47;100.00
60373;BME280;46216;52.220;5.134;2022-12-11T02:15:20;101299.09;;;2.51;100.00
60373;BME280;46216;52.220;5.134;2022-12-11T02:20:37;101295.50;;;2.53;100.00
60373;BME280;46216;52.220;5.134;2022-12-11T02:25:49;101301.50;;;2.58;100.00
60373;BME280;46216;52.220;5.134;2022-12-11T02:34:16;101284.72;;;2.61;100.00
60373;BME280;46216;52.220;5.134;2022-12-11T02:36:45;101285.63;;;2.62;100.00
60373;BME280;46216;52.220;5.134;2022-12-11T02:39:14;101284.63;;;2.64;100.00
60373;BME280;46216;52.220;5.134;2022-12-11T02:41:47;101286.47;;;2.62;100.00
60373;BME280;46216;52.220;5.134;2022-12-11T02:44:15;101283.88;;;2.60;100.00
60373;BME280;46216;52.220;5.134;2022-12-11T02:46:43;101280.47;;;2.57;100.00
60373;BME280;46216;52.220;5.134;2022-12-11T02:49:09;101297.94;;;2.59;100.00
60373;BME280;46216;52.220;5.134;2022-12-11T02:51:39;101286.66;;;2.56;100.00
60373;BME280;46216;52.220;5.134;2022-12-11T02:54:08;101288.38;;;2.57;100.00
60373;BME280;46216;52.220;5.134;2022-12-11T02:56:42;101291.00;;;2.57;100.00
60373;BME280;46216;52.220;5.134;2022-12-11T02:59:18;101283.22;;;2.54;100.00
60373;BME280;46216;52.220;5.134;2022-12-11T03:01:45;101284.94;;;2.55;100.00
60373;BME280;46216;52.220;5.134;2022-12-11T03:04:11;101287.56;;;2.55;100.00
60373;BME280;46216;52.220;5.134;2022-12-11T03:06:41;101284.03;;;2.56;100.00
60373;BME280;46216;52.220;5.134;2022-12-11T03:09:09;101279.56;;;2.58;100.00
60373;BME280;46216;52.220;5.134;2022-12-11T03:11:34;101288.28;;;2.60;100.00
60373;BME280;46216;52.220;5.134;2022-12-11T03:14:00;101281.22;;;2.62;100.00
60373;BME280;46216;52.220;5.134;2022-12-11T03:16:33;101284.69;;;2.63;100.00
60373;BME280;46216;52.220;5.134;2022-12-11T03:19:26;101291.00;;;2.57;100.00
60373;BME280;46216;52.220;5.134;2022-12-11T03:21:55;101277.75;;;2.60;100.00
60373;BME280;46216;52.220;5.134;2022-12-11T03:24:44;101285.72;;;2.58;100.00
60373;BME280;46216;52.220;5.134;2022-12-11T03:30:09;101283.09;;;2.57;100.00
60373;BME280;46216;52.220;5.134;2022-12-11T03:32:40;101283.84;;;2.62;100.00
60373;BME280;46216;52.220;5.134;2022-12-11T03:35:19;101273.44;;;2.57;100.00
60373;BME280;46216;52.220;5.134;2022-12-11T03:37:48;101274.25;;;2.59;100.00
60373;BME280;46216;52.220;5.134;2022-12-11T03:40:16;101274.28;;;2.58;100.00
60373;BME280;46216;52.220;5.134;2022-12-11T03:42:44;101269.03;;;2.58;100.00
60373;BME280;46216;52.220;5.134;2022-12-11T03:45:11;101266.47;;;2.56;100.00
60373;BME280;46216;52.220;5.134;2022-12-11T03:47:39;101276.13;;;2.56;100.00
60373;BME280;46216;52.220;5.134;2022-12-11T03:50:08;101272.56;;;2.58;100.00
60373;BME280;46216;52.220;5.134;2022-12-11T03:52:36;101269.03;;;2.58;100.00
60373;BME280;46216;52.220;5.134;2022-12-11T03:55:05;101267.22;;;2.60;100.00
60373;BME280;46216;52.220;5.134;2022-12-11T03:57:34;101260.34;;;2.56;100.00
60373;BME280;46216;52.220;5.134;2022-12-11T04:00:00;101263.75;;;2.59;100.00
60373;BME280;46216;52.220;5.134;2022-12-11T04:02:29;101263.66;;;2.61;100.00
60373;BME280;46216;52.220;5.134;2022-12-11T04:04:55;101261.00;;;2.63;100.00
60373;BME280;46216;52.220;5.134;2022-12-11T04:07:20;101259.22;;;2.63;100.00
60373;BME280;46216;52.220;5.134;2022-12-11T04:09:46;101268.06;;;2.62;100.00
60373;BME280;46216;52.220;5.134;2022-12-11T04:12:11;101269.84;;;2.60;100.00
60373;BME280;46216;52.220;5.134;2022-12-11T04:14:36;101265.50;;;2.59;100.00
60373;BME280;46216;52.220;5.134;2022-12-11T04:17:20;101267.22;;;2.60;100.00
60373;BME280;46216;52.220;5.134;2022-12-11T04:20:05;101269.84;;;2.60;100.00
60373;BME280;46216;52.220;5.134;2022-12-11T04:22:49;101270.81;;;2.57;100.00
60373;BME280;46216;52.220;5.134;2022-12-11T04:25:33;101261.31;;;2.53;100.00
60373;BME280;46216;52.220;5.134;2022-12-11T04:27:58;101264.69;;;2.57;100.00
60373;BME280;46216;52.220;5.134;2022-12-11T04:30:24;101258.75;;;2.52;100.00
60373;BME280;46216;52.220;5.134;2022-12-11T04:32:51;101256.81;;;2.57;100.00
60373;BME280;46216;52.220;5.134;2022-12-11T04:35:17;101256.88;;;2.55;100.00
60373;BME280;46216;52.220;5.134;2022-12-11T04:37:43;101262.97;;;2.56;100.00
60373;BME280;46216;52.220;5.134;2022-12-11T04:40:11;101253.31;;;2.56;100.00
60373;BME280;46216;52.220;5.134;2022-12-11T04:42:38;101262.03;;;2.58;100.00
60373;BME280;46216;52.220;5.134;2022-12-11T04:45:04;101263.78;;;2.58;100.00
60373;BME280;46216;52.220;5.134;2022-12-11T04:47:30;101255.84;;;2.59;100.00
60373;BME280;46216;52.220;5.134;2022-12-11T04:49:56;101252.34;;;2.59;100.00
60373;BME280;46216;52.220;5.134;2022-12-11T04:52:21;101250.59;;;2.59;100.00
60373;BME280;46216;52.220;5.134;2022-12-11T04:54:47;101247.09;;;2.59;100.00
60373;BME280;46216;52.220;5.134;2022-12-11T04:57:12;101249.63;;;2.62;100.00
60373;BME280;46216;52.220;5.134;2022-12-11T04:59:37;101252.25;;;2.62;100.00
60373;BME280;46216;52.220;5.134;2022-12-11T05:02:03;101253.91;;;2.65;100.00
60373;BME280;46216;52.220;5.134;2022-12-11T05:04:32;101256.53;;;2.65;100.00
60373;BME280;46216;52.220;5.134;2022-12-11T05:06:58;101253.06;;;2.64;100.00
60373;BME280;46216;52.220;5.134;2022-12-11T05:09:24;101260.94;;;2.64;100.00
60373;BME280;46216;52.220;5.134;2022-12-11T05:11:50;101262.72;;;2.64;100.00
60373;BME280;46216;52.220;5.134;2022-12-11T05:14:15;101264.41;;;2.66;100.00
60373;BME280;46216;52.220;5.134;2022-12-11T05:16:41;101255.59;;;2.67;100.00
60373;BME280;46216;52.220;5.134;2022-12-11T05:19:06;101274.00;;;2.67;100.00
60373;BME280;46216;52.220;5.134;2022-12-11T05:21:31;101261.81;;;2.65;100.00
60373;BME280;46216;52.220;5.134;2022-12-11T05:23:57;101264.44;;;2.65;100.00
60373;BME280;46216;52.220;5.134;2022-12-11T05:26:22;101259.16;;;2.65;100.00
60373;BME280;46216;52.220;5.134;2022-12-11T05:28:51;101256.53;;;2.65;100.00
60373;BME280;46216;52.220;5.134;2022-12-11T05:31:21;101259.13;;;2.66;100.00
60373;BME280;46216;52.220;5.134;2022-12-11T05:33:47;101252.25;;;2.62;100.00
60373;BME280;46216;52.220;5.134;2022-12-11T05:36:25;101245.25;;;2.61;100.00
60373;BME280;46216;52.220;5.134;2022-12-11T05:38:52;101243.50;;;2.62;100.00
60373;BME280;46216;52.220;5.134;2022-12-11T05:41:22;101242.72;;;2.58;100.00
60373;BME280;46216;52.220;5.134;2022-12-11T05:43:48;101243.63;;;2.58;100.00
60373;BME280;46216;52.220;5.134;2022-12-11T05:46:18;101241.13;;;2.54;100.00
60373;BME280;46216;52.220;5.134;2022-12-11T05:48:46;101244.56;;;2.56;100.00
60373;BME280;46216;52.220;5.134;2022-12-11T05:51:12;101248.91;;;2.57;100.00
60373;BME280;46216;52.220;5.134;2022-12-11T05:53:39;101244.56;;;2.56;100.00
60373;BME280;46216;52.220;5.134;2022-12-11T05:56:08;101238.47;;;2.54;100.00
60373;BME280;46216;52.220;5.134;2022-12-11T05:58:34;101229.81;;;2.50;100.00
60373;BME280;46216;52.220;5.134;2022-12-11T06:01:00;101234.13;;;2.53;100.00
60373;BME280;46216;52.220;5.134;2022-12-11T06:03:26;101228.88;;;2.53;100.00
60373;BME280;46216;52.220;5.134;2022-12-11T06:05:52;101222.78;;;2.51;100.00
60373;BME280;46216;52.220;5.134;2022-12-11T06:08:17;101231.53;;;2.51;100.00
60373;BME280;46216;52.220;5.134;2022-12-11T06:10:49;101225.53;;;2.48;100.00
60373;BME280;46216;52.220;5.134;2022-12-11T06:13:15;101223.72;;;2.50;100.00
60373;BME280;46216;52.220;5.134;2022-12-11T06:15:41;101231.53;;;2.51;100.00
60373;BME280;46216;52.220;5.134;2022-12-11T06:18:06;101222.84;;;2.49;100.00
60373;BME280;46216;52.220;5.134;2022-12-11T06:20:32;101231.59;;;2.50;100.00
60373;BME280;46216;52.220;5.134;2022-12-11T06:22:58;101239.50;;;2.50;100.00
60373;BME280;46216;52.220;5.134;2022-12-11T06:25:24;101229.91;;;2.49;100.00
60373;BME280;46216;52.220;5.134;2022-12-11T06:27:49;101230.00;;;2.46;100.00
60373;BME280;46216;52.220;5.134;2022-12-11T06:30:14;101229.06;;;2.47;100.00
60373;BME280;46216;52.220;5.134;2022-12-11T06:32:41;101225.75;;;2.42;100.00
60373;BME280;46216;52.220;5.134;2022-12-11T06:35:06;101230.94;;;2.43;100.00
60373;BME280;46216;52.220;5.134;2022-12-11T06:37:34;101225.75;;;2.42;100.00
60373;BME280;46216;52.220;5.134;2022-12-11T06:39:59;101228.31;;;2.43;100.00
60373;BME280;46216;52.220;5.134;2022-12-11T06:42:28;101229.16;;;2.44;100.00
60373;BME280;46216;52.220;5.134;2022-12-11T06:44:54;101237.97;;;2.43;100.00
60373;BME280;46216;52.220;5.134;2022-12-11T06:47:21;101242.47;;;2.39;100.00
60373;BME280;46216;52.220;5.134;2022-12-11T06:49:47;101235.53;;;2.36;100.00
60373;BME280;46216;52.220;5.134;2022-12-11T06:52:13;101242.50;;;2.37;100.00
60373;BME280;46216;52.220;5.134;2022-12-11T06:54:38;101253.03;;;2.37;100.00
60373;BME280;46216;52.220;5.134;2022-12-11T06:57:03;101246.13;;;2.35;100.00
60373;BME280;46216;52.220;5.134;2022-12-11T06:59:29;101254.16;;;2.30;100.00
60373;BME280;46216;52.220;5.134;2022-12-11T07:01:54;101248.00;;;2.31;100.00
60373;BME280;46216;52.220;5.134;2022-12-11T07:04:20;101249.75;;;2.31;100.00
60373;BME280;46216;52.220;5.134;2022-12-11T07:06:48;101247.06;;;2.32;100.00
60373;BME280;46216;52.220;5.134;2022-12-11T07:09:14;101252.34;;;2.32;100.00
60373;BME280;46216;52.220;5.134;2022-12-11T07:11:39;101245.38;;;2.31;100.00
60373;BME280;46216;52.220;5.134;2022-12-11T07:14:04;101259.41;;;2.30;100.00
60373;BME280;46216;52.220;5.134;2022-12-11T07:16:31;101248.97;;;2.27;100.00
60373;BME280;46216;52.220;5.134;2022-12-11T07:18:56;101256.84;;;2.29;100.00
60373;BME280;46216;52.220;5.134;2022-12-11T07:21:21;101256.88;;;2.27;100.00
60373;BME280;46216;52.220;5.134;2022-12-11T07:23:48;101258.50;;;2.31;100.00
60373;BME280;46216;52.220;5.134;2022-12-11T07:26:15;101256.75;;;2.32;100.00
60373;BME280;46216;52.220;5.134;2022-12-11T07:28:42;101255.97;;;2.28;100.00
60373;BME280;46216;52.220;5.134;2022-12-11T07:31:10;101255.00;;;2.31;100.00
60373;BME280;46216;52.220;5.134;2022-12-11T07:33:36;101260.38;;;2.28;100.00
60373;BME280;46216;52.220;5.134;2022-12-11T07:36:04;101256.94;;;2.26;100.00
60373;BME280;46216;52.220;5.134;2022-12-11T07:38:30;101263.88;;;2.28;100.00
60373;BME280;46216;52.220;5.134;2022-12-11T07:40:59;101263.03;;;2.26;100.00
60373;BME280;46216;52.220;5.134;2022-12-11T07:43:25;101259.47;;;2.29;100.00
60373;BME280;46216;52.220;5.134;2022-12-11T07:45:50;101253.34;;;2.28;100.00
60373;BME280;46216;52.220;5.134;2022-12-11T07:48:16;101257.75;;;2.28;100.00
60373;BME280;46216;52.220;5.134;2022-12-11T07:50:41;101259.56;;;2.26;100.00
60373;BME280;46216;52.220;5.134;2022-12-11T07:53:06;101260.41;;;2.26;100.00
60373;BME280;46216;52.220;5.134;2022-12-11T07:55:31;101266.50;;;2.28;100.00
60373;BME280;46216;52.220;5.134;2022-12-11T07:57:57;101263.03;;;2.26;100.00
60373;BME280;46216;52.220;5.134;2022-12-11T08:00:22;101260.38;;;2.28;100.00
60373;BME280;46216;52.220;5.134;2022-12-11T08:02:47;101256.94;;;2.26;100.00
60373;BME280;46216;52.220;5.134;2022-12-11T08:05:13;101263.88;;;2.28;100.00
60373;BME280;46216;52.220;5.134;2022-12-11T08:07:38;101266.44;;;2.30;100.00
60373;BME280;46216;52.220;5.134;2022-12-11T08:10:04;101271.66;;;2.31;100.00
60373;BME280;46216;52.220;5.134;2022-12-11T08:12:30;101269.91;;;2.32;100.00
60373;BME280;46216;52.220;5.134;2022-12-11T08:14:55;101270.75;;;2.32;100.00
60373;BME280;46216;52.220;5.134;2022-12-11T08:17:20;101266.41;;;2.31;100.00
60373;BME280;46216;52.220;5.134;2022-12-11T08:19:46;101268.97;;;2.33;100.00
60373;BME280;46216;52.220;5.134;2022-12-11T08:22:11;101290.97;;;2.30;100.00
60373;BME280;46216;52.220;5.134;2022-12-11T08:24:38;101287.47;;;2.30;100.00
60373;BME280;46216;52.220;5.134;2022-12-11T08:27:03;101278.78;;;2.28;100.00
60373;BME280;46216;52.220;5.134;2022-12-11T08:29:29;101282.28;;;2.28;100.00
60373;BME280;46216;52.220;5.134;2022-12-11T08:31:55;101290.19;;;2.27;100.00
60373;BME280;46216;52.220;5.134;2022-12-11T08:34:21;101292.81;;;2.27;100.00
60373;BME280;46216;52.220;5.134;2022-12-11T08:36:46;101285.09;;;2.22;100.00
60373;BME280;46216;52.220;5.134;2022-12-11T08:39:12;101291.13;;;2.26;100.00
60373;BME280;46216;52.220;5.134;2022-12-11T08:41:38;101288.56;;;2.24;100.00
60373;BME280;46216;52.220;5.134;2022-12-11T08:44:03;101287.63;;;2.25;100.00
60373;BME280;46216;52.220;5.134;2022-12-11T08:46:30;101285.03;;;2.24;100.00
60373;BME280;46216;52.220;5.134;2022-12-11T08:48:56;101282.38;;;2.25;100.00
60373;BME280;46216;52.220;5.134;2022-12-11T08:51:24;101270.16;;;2.24;100.00
60373;BME280;46216;52.220;5.134;2022-12-11T08:53:52;101273.56;;;2.26;100.00
60373;BME280;46216;52.220;5.134;2022-12-11T08:56:19;101270.34;;;2.17;100.00
60373;BME280;46216;52.220;5.134;2022-12-11T08:58:46;101275.53;;;2.20;100.00
60373;BME280;46216;52.220;5.134;2022-12-11T09:01:17;101273.22;;;2.09;100.00
60373;BME280;46216;52.220;5.134;2022-12-11T09:03:45;101267.72;;;2.17;100.00
60373;BME280;46216;52.220;5.134;2022-12-11T09:06:13;101266.88;;;2.16;100.00
60373;BME280;46216;52.220;5.134;2022-12-11T09:08:41;101265.88;;;2.20;100.00
60373;BME280;46216;52.220;5.134;2022-12-11T09:11:12;101253.63;;;2.19;100.00
60373;BME280;46216;52.220;5.134;2022-12-11T09:13:38;101257.00;;;2.24;100.00
60373;BME280;46216;52.220;5.134;2022-12-11T09:16:06;101254.38;;;2.24;100.00
60373;BME280;46216;52.220;5.134;2022-12-11T09:18:31;101252.50;;;2.28;100.00
60373;BME280;46216;52.220;5.134;2022-12-11T09:20:58;101248.88;;;2.30;100.00
60373;BME280;46216;52.220;5.134;2022-12-11T09:23:24;101247.84;;;2.36;100.00
60373;BME280;46216;52.220;5.134;2022-12-11T09:25:49;101239.78;;;2.41;100.00
60373;BME280;46216;52.220;5.134;2022-12-11T09:28:14;101242.38;;;2.42;100.00
60373;BME280;46216;52.220;5.134;2022-12-11T09:30:40;101238.69;;;2.48;100.00
60373;BME280;46216;52.220;5.134;2022-12-11T09:33:06;101246.56;;;2.48;100.00
60373;BME280;46216;52.220;5.134;2022-12-11T09:35:31;101247.31;;;2.51;100.00
60373;BME280;46216;52.220;5.134;2022-12-11T09:37:56;101249.06;;;2.52;100.00
60373;BME280;46216;52.220;5.134;2022-12-11T09:40:22;101251.53;;;2.57;100.00
60373;BME280;46216;52.220;5.134;2022-12-11T09:42:52;101250.63;;;2.58;100.00
60373;BME280;46216;52.220;5.134;2022-12-11T09:45:18;101247.00;;;2.62;100.00
60373;BME280;46216;52.220;5.134;2022-12-11T09:47:47;101248.81;;;2.60;100.00
60373;BME280;46216;52.220;5.134;2022-12-11T09:50:20;101249.72;;;2.59;100.00
60373;BME280;46216;52.220;5.134;2022-12-11T09:52:56;101251.44;;;2.60;100.00
60373;BME280;46216;52.220;5.134;2022-12-11T09:55:23;101247.00;;;2.62;100.00
60373;BME280;46216;52.220;5.134;2022-12-11T10:00:47;101243.44;;;2.63;100.00
60373;BME280;46216;52.220;5.134;2022-12-11T10:06:16;101241.66;;;2.64;100.00
60373;BME280;46216;52.220;5.134;2022-12-11T10:11:57;101249.41;;;2.68;100.00
60373;BME280;46216;52.220;5.134;2022-12-11T10:17:05;101253.56;;;2.75;100.00
60373;BME280;46216;52.220;5.134;2022-12-11T10:19:34;101246.47;;;2.77;100.00
60373;BME280;46216;52.220;5.134;2022-12-11T10:22:00;101250.72;;;2.81;100.00
60373;BME280;46216;52.220;5.134;2022-12-11T10:24:46;101247.28;;;2.79;100.00
60373;BME280;46216;52.220;5.134;2022-12-11T10:27:21;101247.97;;;2.84;100.00
60373;BME280;46216;52.220;5.134;2022-12-11T10:29:51;101247.19;;;2.82;100.00
60373;BME280;46216;52.220;5.134;2022-12-11T10:32:24;101240.06;;;2.86;100.00
60373;BME280;46216;52.220;5.134;2022-12-11T10:35:01;101237.41;;;2.86;100.00
60373;BME280;46216;52.220;5.134;2022-12-11T10:37:28;101235.53;;;2.90;100.00
60373;BME280;46216;52.220;5.134;2022-12-11T10:39:54;101233.78;;;2.89;100.00
60373;BME280;46216;52.220;5.134;2022-12-11T10:42:20;101228.53;;;2.89;100.00
60373;BME280;46216;52.220;5.134;2022-12-11T10:45:01;101231.88;;;2.94;100.00
60373;BME280;46216;52.220;5.134;2022-12-11T10:47:27;101224.28;;;2.84;100.00
60373;BME280;46216;52.220;5.134;2022-12-11T10:50:00;101224.19;;;2.88;100.00
60373;BME280;46216;52.220;5.134;2022-12-11T10:52:34;101227.53;;;2.93;100.00
60373;BME280;46216;52.220;5.134;2022-12-11T10:55:18;101225.69;;;2.95;100.00
60373;BME280;46216;52.220;5.134;2022-12-11T10:57:44;101226.50;;;2.97;100.00
60373;BME280;46216;52.220;5.134;2022-12-11T11:00:31;101230.84;;;2.98;100.00
60373;BME280;46216;52.220;5.134;2022-12-11T11:02:57;101229.03;;;3.00;100.00
60373;BME280;46216;52.220;5.134;2022-12-11T11:08:13;101210.44;;;3.04;100.00
60373;BME280;46216;52.220;5.134;2022-12-11T11:13:15;101209.25;;;3.13;100.00
60373;BME280;46216;52.220;5.134;2022-12-11T11:15:40;101205.50;;;3.20;100.00
60373;BME280;46216;52.220;5.134;2022-12-11T11:18:11;101202.78;;;3.22;100.00
60373;BME280;46216;52.220;5.134;2022-12-11T11:20:46;101202.03;;;3.18;100.00
60373;BME280;46216;52.220;5.134;2022-12-11T11:23:13;101206.38;;;3.19;100.00
60373;BME280;46216;52.220;5.134;2022-12-11T11:25:48;101201.19;;;3.18;100.00
60373;BME280;46216;52.220;5.134;2022-12-11T11:28:20;101205.38;;;3.23;100.00
60373;BME280;46216;52.220;5.134;2022-12-11T11:31:04;101202.75;;;3.23;100.00
60373;BME280;46216;52.220;5.134;2022-12-11T11:33:32;101195.59;;;3.27;100.00
60373;BME280;46216;52.220;5.134;2022-12-11T11:36:04;101194.84;;;3.23;100.00
60373;BME280;46216;52.220;5.134;2022-12-11T11:38:43;101197.41;;;3.25;100.00
60373;BME280;46216;52.220;5.134;2022-12-11T11:41:26;101201.56;;;3.07;100.00
60373;BME280;46216;52.220;5.134;2022-12-11T11:43:58;101196.03;;;3.15;100.00
60373;BME280;46216;52.220;5.134;2022-12-11T11:46:38;101196.03;;;3.15;100.00
60373;BME280;46216;52.220;5.134;2022-12-11T11:49:27;101199.59;;;3.14;100.00
60373;BME280;46216;52.220;5.134;2022-12-11T11:51:59;101196.03;;;3.15;100.00
60373;BME280;46216;52.220;5.134;2022-12-11T11:54:36;101188.19;;;3.13;100.00
60373;BME280;46216;52.220;5.134;2022-12-11T11:57:26;101181.44;;;3.06;100.00
60373;BME280;46216;52.220;5.134;2022-12-11T11:59:57;101177.88;;;3.07;100.00
60373;BME280;46216;52.220;5.134;2022-12-11T12:02:23;101177.78;;;3.10;100.00
60373;BME280;46216;52.220;5.134;2022-12-11T12:04:49;101176.81;;;3.13;100.00
60373;BME280;46216;52.220;5.134;2022-12-11T12:15:21;101181.81;;;3.19;100.00
60373;BME280;46216;52.220;5.134;2022-12-11T12:20:54;101181.78;;;3.20;100.00
60373;BME280;46216;52.220;5.134;2022-12-11T12:23:54;101185.16;;;3.24;100.00
60373;BME280;46216;52.220;5.134;2022-12-11T12:31:49;101179.59;;;3.31;100.00
60373;BME280;46216;52.220;5.134;2022-12-11T12:45:52;101177.09;;;3.28;100.00
60373;BME280;46216;52.220;5.134;2022-12-11T12:48:24;101170.00;;;3.30;100.00
60373;BME280;46216;52.220;5.134;2022-12-11T12:50:51;101176.22;;;3.28;100.00
60373;BME280;46216;52.220;5.134;2022-12-11T12:53:22;101175.47;;;3.24;100.00
60373;BME280;46216;52.220;5.134;2022-12-11T12:55:49;101167.69;;;3.21;100.00
60373;BME280;46216;52.220;5.134;2022-12-11T12:58:43;101170.53;;;3.15;100.00
60373;BME280;46216;52.220;5.134;2022-12-11T13:03:59;101165.16;;;3.18;100.00
60373;BME280;46216;52.220;5.134;2022-12-11T13:09:23;101157.59;;;3.09;100.00
60373;BME280;46216;52.220;5.134;2022-12-11T13:11:50;101156.69;;;3.10;100.00
60373;BME280;46216;52.220;5.134;2022-12-11T13:16:50;101159.38;;;3.08;100.00
60373;BME280;46216;52.220;5.134;2022-12-11T13:24:56;101158.72;;;3.02;100.00
60373;BME280;46216;52.220;5.134;2022-12-11T13:27:39;101167.53;;;3.02;100.00
60373;BME280;46216;52.220;5.134;2022-12-11T13:30:21;101171.00;;;3.03;100.00
60373;BME280;46216;52.220;5.134;2022-12-11T13:33:03;101163.91;;;3.05;100.00
60373;BME280;46216;52.220;5.134;2022-12-11T13:35:31;101165.63;;;3.06;100.00
60373;BME280;46216;52.220;5.134;2022-12-11T13:38:06;101167.28;;;3.08;100.00
60373;BME280;46216;52.220;5.134;2022-12-11T13:40:43;101170.75;;;3.09;100.00
60373;BME280;46216;52.220;5.134;2022-12-11T13:43:18;101168.94;;;3.11;100.00
60373;BME280;46216;52.220;5.134;2022-12-11T13:45:48;101170.53;;;3.15;100.00
60373;BME280;46216;52.220;5.134;2022-12-11T13:48:24;101175.06;;;3.12;100.00
60373;BME280;46216;52.220;5.134;2022-12-11T13:50:52;101175.81;;;3.15;100.00
60373;BME280;46216;52.220;5.134;2022-12-11T13:53:19;101174.09;;;3.14;100.00
60373;BME280;46216;52.220;5.134;2022-12-11T13:55:45;101168.84;;;3.14;100.00
60373;BME280;46216;52.220;5.134;2022-12-11T13:58:19;101167.13;;;3.13;100.00
60373;BME280;46216;52.220;5.134;2022-12-11T14:03:29;101173.13;;;3.17;100.00
60373;BME280;46216;52.220;5.134;2022-12-11T14:05:55;101174.84;;;3.18;100.00
60373;BME280;46216;52.220;5.134;2022-12-11T14:08:23;101168.66;;;3.19;100.00
60373;BME280;46216;52.220;5.134;2022-12-11T14:10:52;101176.44;;;3.22;100.00
60373;BME280;46216;52.220;5.134;2022-12-11T14:13:25;101176.41;;;3.23;100.00